sensor_id;sensor_type;location;lat;lon;timestamp;temperature;humidity
30250;DHT22;17064;47.974;13.826;2024-03-07T00:03:55;5.10;99.90
30250;DHT22;17064;47.974;13.826;2024-03-07T00:08:55;5.10;99.90
30250;DHT22;17064;47.974;13.826;2024-03-07T00:13:56;5.00;99.90
30250;DHT22;17064;47.974;13.826;2024-03-07T00:18:56;4.90;99.90
30250;DHT22;17064;47.974;13.826;2024-03-07T00:23:57;4.90;99.90
30250;DHT22;17064;47.974;13.826;2024-03-07T00:28:58;4.90;99.90
30250;DHT22;17064;47.974;13.826;2024-03-07T00:33:59;4.90;99.90
30250;DHT22;17064;47.974;13.826;2024-03-07T00:39:00;4.90;99.90
30250;DHT22;17064;47.974;13.826;2024-03-07T00:44:00;4.80;99.90
30250;DHT22;17064;47.974;13.826;2024-03-07T00:49:01;4.80;99.90
30250;DHT22;17064;47.974;13.826;2024-03-07T00:54:02;4.80;99.90
30250;DHT22;17064;47.974;13.826;2024-03-07T00:59:02;4.70;99.90
30250;DHT22;17064;47.974;13.826;2024-03-07T01:04:03;4.60;99.90
30250;DHT22;17064;47.974;13.826;2024-03-07T01:09:04;4.50;99.90
30250;DHT22;17064;47.974;13.826;2024-03-07T01:14:04;4.40;99.90
30250;DHT22;17064;47.974;13.826;2024-03-07T01:19:05;4.40;99.90
30250;DHT22;17064;47.974;13.826;2024-03-07T01:24:08;4.40;99.90
30250;DHT22;17064;47.974;13.826;2024-03-07T01:29:09;4.40;99.90
30250;DHT22;17064;47.974;13.826;2024-03-07T01:34:10;4.40;99.90
30250;DHT22;17064;47.974;13.826;2024-03-07T01:39:10;4.40;99.90
30250;DHT22;17064;47.974;13.826;2024-03-07T01:44:11;4.30;99.90
30250;DHT22;17064;47.974;13.826;2024-03-07T01:49:11;4.30;99.90
30250;DHT22;17064;47.974;13.826;2024-03-07T01:54:12;4.20;99.90
30250;DHT22;17064;47.974;13.826;2024-03-07T01:59:13;4.20;99.90
30250;DHT22;17064;47.974;13.826;2024-03-07T02:04:14;4.20;99.90
30250;DHT22;17064;47.974;13.826;2024-03-07T02:09:14;4.20;99.90
30250;DHT22;17064;47.974;13.826;2024-03-07T02:14:15;4.20;99.90
30250;DHT22;17064;47.974;13.826;2024-03-07T02:19:17;4.20;99.90
30250;DHT22;17064;47.974;13.826;2024-03-07T02:24:18;4.20;99.90
30250;DHT22;17064;47.974;13.826;2024-03-07T02:29:18;4.20;99.90
30250;DHT22;17064;47.974;13.826;2024-03-07T02:34:19;4.10;99.90
30250;DHT22;17064;47.974;13.826;2024-03-07T02:39:20;4.10;99.90
30250;DHT22;17064;47.974;13.826;2024-03-07T02:44:25;4.10;99.90
30250;DHT22;17064;47.974;13.826;2024-03-07T02:49:25;4.00;99.90
30250;DHT22;17064;47.974;13.826;2024-03-07T02:54:26;4.00;99.90
30250;DHT22;17064;47.974;13.826;2024-03-07T02:59:26;3.90;99.90
30250;DHT22;17064;47.974;13.826;2024-03-07T03:04:27;4.00;99.90
30250;DHT22;17064;47.974;13.826;2024-03-07T03:09:29;3.90;99.90
30250;DHT22;17064;47.974;13.826;2024-03-07T03:14:29;3.90;99.90
30250;DHT22;17064;47.974;13.826;2024-03-07T03:19:30;3.90;99.90
30250;DHT22;17064;47.974;13.826;2024-03-07T03:24:30;3.90;99.90
30250;DHT22;17064;47.974;13.826;2024-03-07T03:29:31;3.90;99.90
30250;DHT22;17064;47.974;13.826;2024-03-07T03:34:31;3.90;99.90
30250;DHT22;17064;47.974;13.826;2024-03-07T03:39:32;3.90;99.90
30250;DHT22;17064;47.974;13.826;2024-03-07T03:44:33;3.80;99.90
30250;DHT22;17064;47.974;13.826;2024-03-07T03:49:34;3.70;99.90
30250;DHT22;17064;47.974;13.826;2024-03-07T03:54:35;3.70;99.90
30250;DHT22;17064;47.974;13.826;2024-03-07T03:59:35;3.70;99.90
30250;DHT22;17064;47.974;13.826;2024-03-07T04:04:38;3.60;99.90
30250;DHT22;17064;47.974;13.826;2024-03-07T04:09:39;3.60;99.90
30250;DHT22;17064;47.974;13.826;2024-03-07T04:14:39;3.60;99.90
30250;DHT22;17064;47.974;13.826;2024-03-07T04:19:41;3.50;99.90
30250;DHT22;17064;47.974;13.826;2024-03-07T04:24:42;3.60;99.90
30250;DHT22;17064;47.974;13.826;2024-03-07T04:29:43;3.50;99.90
30250;DHT22;17064;47.974;13.826;2024-03-07T04:34:43;3.40;99.90
30250;DHT22;17064;47.974;13.826;2024-03-07T04:39:44;3.30;99.90
30250;DHT22;17064;47.974;13.826;2024-03-07T04:44:46;3.20;99.90
30250;DHT22;17064;47.974;13.826;2024-03-07T04:49:46;3.20;99.90
30250;DHT22;17064;47.974;13.826;2024-03-07T04:54:47;3.10;99.90
30250;DHT22;17064;47.974;13.826;2024-03-07T04:59:47;3.00;99.90
30250;DHT22;17064;47.974;13.826;2024-03-07T05:04:48;2.90;99.90
30250;DHT22;17064;47.974;13.826;2024-03-07T05:09:50;2.80;99.90
30250;DHT22;17064;47.974;13.826;2024-03-07T05:14:50;2.70;99.90
30250;DHT22;17064;47.974;13.826;2024-03-07T05:19:51;2.60;99.90
30250;DHT22;17064;47.974;13.826;2024-03-07T05:24:51;2.50;99.90
30250;DHT22;17064;47.974;13.826;2024-03-07T05:29:52;2.50;99.90
30250;DHT22;17064;47.974;13.826;2024-03-07T05:34:52;2.40;99.90
30250;DHT22;17064;47.974;13.826;2024-03-07T05:39:56;2.40;99.90
30250;DHT22;17064;47.974;13.826;2024-03-07T05:44:57;2.40;99.90
30250;DHT22;17064;47.974;13.826;2024-03-07T05:49:57;2.40;99.90
30250;DHT22;17064;47.974;13.826;2024-03-07T05:54:58;2.40;99.90
30250;DHT22;17064;47.974;13.826;2024-03-07T05:59:58;2.50;99.90
30250;DHT22;17064;47.974;13.826;2024-03-07T06:04:59;2.50;99.90
30250;DHT22;17064;47.974;13.826;2024-03-07T06:09:59;2.40;99.90
30250;DHT22;17064;47.974;13.826;2024-03-07T06:15:00;2.40;99.90
30250;DHT22;17064;47.974;13.826;2024-03-07T06:20:01;2.50;99.90
30250;DHT22;17064;47.974;13.826;2024-03-07T06:25:01;2.60;99.90
30250;DHT22;17064;47.974;13.826;2024-03-07T06:30:07;2.60;99.90
30250;DHT22;17064;47.974;13.826;2024-03-07T06:35:09;2.70;99.90
30250;DHT22;17064;47.974;13.826;2024-03-07T06:40:10;2.80;99.90
30250;DHT22;17064;47.974;13.826;2024-03-07T06:45:11;2.90;99.90
30250;DHT22;17064;47.974;13.826;2024-03-07T06:50:12;3.00;99.90
30250;DHT22;17064;47.974;13.826;2024-03-07T06:55:19;3.10;99.90
30250;DHT22;17064;47.974;13.826;2024-03-07T07:00:20;3.20;99.90
30250;DHT22;17064;47.974;13.826;2024-03-07T07:05:21;3.30;99.90
30250;DHT22;17064;47.974;13.826;2024-03-07T07:10:21;3.40;99.90
30250;DHT22;17064;47.974;13.826;2024-03-07T07:15:24;3.50;99.90
30250;DHT22;17064;47.974;13.826;2024-03-07T07:20:25;3.50;99.90
30250;DHT22;17064;47.974;13.826;2024-03-07T07:25:26;3.60;99.90
30250;DHT22;17064;47.974;13.826;2024-03-07T07:30:27;3.60;99.90
30250;DHT22;17064;47.974;13.826;2024-03-07T07:35:28;3.60;99.90
30250;DHT22;17064;47.974;13.826;2024-03-07T07:40:28;3.60;99.90
30250;DHT22;17064;47.974;13.826;2024-03-07T07:45:31;3.60;99.90
30250;DHT22;17064;47.974;13.826;2024-03-07T07:50:35;3.60;99.90
30250;DHT22;17064;47.974;13.826;2024-03-07T07:55:36;3.50;99.90
30250;DHT22;17064;47.974;13.826;2024-03-07T08:00:37;3.40;99.90
30250;DHT22;17064;47.974;13.826;2024-03-07T08:05:37;3.40;99.90
30250;DHT22;17064;47.974;13.826;2024-03-07T08:10:40;3.40;99.90
30250;DHT22;17064;47.974;13.826;2024-03-07T08:15:41;3.30;99.90
30250;DHT22;17064;47.974;13.826;2024-03-07T08:20:42;3.30;99.90
30250;DHT22;17064;47.974;13.826;2024-03-07T08:25:43;3.30;99.90
30250;DHT22;17064;47.974;13.826;2024-03-07T08:30:44;3.40;99.90
30250;DHT22;17064;47.974;13.826;2024-03-07T08:35:45;3.40;99.90
30250;DHT22;17064;47.974;13.826;2024-03-07T08:40:45;3.50;99.90
30250;DHT22;17064;47.974;13.826;2024-03-07T08:45:46;3.50;99.90
30250;DHT22;17064;47.974;13.826;2024-03-07T08:50:46;3.70;99.90
30250;DHT22;17064;47.974;13.826;2024-03-07T08:55:47;3.70;99.90
30250;DHT22;17064;47.974;13.826;2024-03-07T09:00:47;3.70;99.90
30250;DHT22;17064;47.974;13.826;2024-03-07T09:05:49;3.70;99.90
30250;DHT22;17064;47.974;13.826;2024-03-07T09:10:51;3.70;99.90
30250;DHT22;17064;47.974;13.826;2024-03-07T09:15:55;3.70;99.90
30250;DHT22;17064;47.974;13.826;2024-03-07T09:20:55;3.80;99.90
30250;DHT22;17064;47.974;13.826;2024-03-07T09:25:56;3.90;99.90
30250;DHT22;17064;47.974;13.826;2024-03-07T09:30:56;4.10;99.90
30250;DHT22;17064;47.974;13.826;2024-03-07T09:35:57;4.30;99.90
30250;DHT22;17064;47.974;13.826;2024-03-07T09:40:58;4.30;99.90
30250;DHT22;17064;47.974;13.826;2024-03-07T09:45:59;4.40;99.90
30250;DHT22;17064;47.974;13.826;2024-03-07T09:51:00;4.50;99.90
30250;DHT22;17064;47.974;13.826;2024-03-07T09:56:03;4.60;99.90
30250;DHT22;17064;47.974;13.826;2024-03-07T10:01:04;4.70;99.90
30250;DHT22;17064;47.974;13.826;2024-03-07T10:06:06;4.80;99.90
30250;DHT22;17064;47.974;13.826;2024-03-07T10:11:10;4.90;99.90
30250;DHT22;17064;47.974;13.826;2024-03-07T10:16:10;5.00;99.90
30250;DHT22;17064;47.974;13.826;2024-03-07T10:21:14;5.10;99.90
30250;DHT22;17064;47.974;13.826;2024-03-07T10:26:17;5.30;99.90
30250;DHT22;17064;47.974;13.826;2024-03-07T10:31:27;5.40;99.90
30250;DHT22;17064;47.974;13.826;2024-03-07T10:36:29;5.40;99.90
30250;DHT22;17064;47.974;13.826;2024-03-07T10:41:31;5.50;99.90
30250;DHT22;17064;47.974;13.826;2024-03-07T10:46:34;5.60;99.90
30250;DHT22;17064;47.974;13.826;2024-03-07T10:51:40;5.80;99.90
30250;DHT22;17064;47.974;13.826;2024-03-07T11:02:03;6.20;99.90
30250;DHT22;17064;47.974;13.826;2024-03-07T11:07:07;6.20;99.90
30250;DHT22;17064;47.974;13.826;2024-03-07T11:12:08;6.30;99.90
30250;DHT22;17064;47.974;13.826;2024-03-07T11:17:12;6.50;99.90
30250;DHT22;17064;47.974;13.826;2024-03-07T11:22:29;6.50;99.90
30250;DHT22;17064;47.974;13.826;2024-03-07T11:27:29;6.60;99.90
30250;DHT22;17064;47.974;13.826;2024-03-07T11:32:33;6.80;99.90
30250;DHT22;17064;47.974;13.826;2024-03-07T11:38:16;6.90;99.90
30250;DHT22;17064;47.974;13.826;2024-03-07T11:42:58;6.90;99.90
30250;DHT22;17064;47.974;13.826;2024-03-07T11:48:00;6.80;99.90
30250;DHT22;17064;47.974;13.826;2024-03-07T11:53:07;6.70;99.90
30250;DHT22;17064;47.974;13.826;2024-03-07T11:58:12;6.60;99.90
30250;DHT22;17064;47.974;13.826;2024-03-07T12:03:17;6.60;99.90
30250;DHT22;17064;47.974;13.826;2024-03-07T12:08:19;6.70;99.90
30250;DHT22;17064;47.974;13.826;2024-03-07T12:13:23;6.70;99.90
30250;DHT22;17064;47.974;13.826;2024-03-07T12:18:25;6.70;99.90
30250;DHT22;17064;47.974;13.826;2024-03-07T12:23:27;6.70;99.90
30250;DHT22;17064;47.974;13.826;2024-03-07T12:28:27;6.70;99.90
30250;DHT22;17064;47.974;13.826;2024-03-07T12:33:29;6.70;99.90
30250;DHT22;17064;47.974;13.826;2024-03-07T12:38:29;6.80;99.90
30250;DHT22;17064;47.974;13.826;2024-03-07T12:43:35;6.90;99.90
30250;DHT22;17064;47.974;13.826;2024-03-07T12:48:36;7.00;99.90
30250;DHT22;17064;47.974;13.826;2024-03-07T12:53:38;7.00;99.90
30250;DHT22;17064;47.974;13.826;2024-03-07T12:58:39;6.80;99.90
30250;DHT22;17064;47.974;13.826;2024-03-07T13:03:40;6.70;99.90
30250;DHT22;17064;47.974;13.826;2024-03-07T13:08:44;6.50;99.90
30250;DHT22;17064;47.974;13.826;2024-03-07T13:13:44;6.40;99.90
30250;DHT22;17064;47.974;13.826;2024-03-07T13:18:45;6.30;99.90
30250;DHT22;17064;47.974;13.826;2024-03-07T13:23:46;6.10;99.90
30250;DHT22;17064;47.974;13.826;2024-03-07T13:28:46;6.00;99.90
30250;DHT22;17064;47.974;13.826;2024-03-07T13:33:48;6.00;99.90
30250;DHT22;17064;47.974;13.826;2024-03-07T13:38:52;6.00;99.90
30250;DHT22;17064;47.974;13.826;2024-03-07T13:43:53;6.10;99.90
30250;DHT22;17064;47.974;13.826;2024-03-07T13:48:54;6.10;99.90
30250;DHT22;17064;47.974;13.826;2024-03-07T13:53:55;6.10;99.90
30250;DHT22;17064;47.974;13.826;2024-03-07T13:59:26;6.10;99.90
30250;DHT22;17064;47.974;13.826;2024-03-07T14:36:05;6.70;99.90
30250;DHT22;17064;47.974;13.826;2024-03-07T14:41:06;6.70;99.90
30250;DHT22;17064;47.974;13.826;2024-03-07T14:46:08;6.60;99.90
30250;DHT22;17064;47.974;13.826;2024-03-07T14:51:11;6.50;99.90
30250;DHT22;17064;47.974;13.826;2024-03-07T14:56:13;6.50;99.90
30250;DHT22;17064;47.974;13.826;2024-03-07T15:01:14;6.50;99.90
30250;DHT22;17064;47.974;13.826;2024-03-07T15:06:15;6.50;99.90
30250;DHT22;17064;47.974;13.826;2024-03-07T15:11:23;6.40;99.90
30250;DHT22;17064;47.974;13.826;2024-03-07T15:16:27;6.30;99.90
30250;DHT22;17064;47.974;13.826;2024-03-07T15:21:28;6.10;99.90
30250;DHT22;17064;47.974;13.826;2024-03-07T15:26:29;5.90;99.90
30250;DHT22;17064;47.974;13.826;2024-03-07T15:31:31;5.70;99.90
30250;DHT22;17064;47.974;13.826;2024-03-07T15:36:34;5.40;99.90
30250;DHT22;17064;47.974;13.826;2024-03-07T15:41:34;5.30;99.90
30250;DHT22;17064;47.974;13.826;2024-03-07T15:46:35;5.10;99.90
30250;DHT22;17064;47.974;13.826;2024-03-07T15:51:37;5.00;99.90
30250;DHT22;17064;47.974;13.826;2024-03-07T15:56:40;4.90;99.90
30250;DHT22;17064;47.974;13.826;2024-03-07T16:01:41;4.70;99.90
30250;DHT22;17064;47.974;13.826;2024-03-07T16:06:44;4.60;99.90
30250;DHT22;17064;47.974;13.826;2024-03-07T16:11:45;4.50;99.90
30250;DHT22;17064;47.974;13.826;2024-03-07T16:16:46;4.50;99.90
30250;DHT22;17064;47.974;13.826;2024-03-07T16:21:47;4.60;99.90
30250;DHT22;17064;47.974;13.826;2024-03-07T16:26:49;4.60;99.90
30250;DHT22;17064;47.974;13.826;2024-03-07T16:31:50;4.30;99.90
30250;DHT22;17064;47.974;13.826;2024-03-07T16:36:50;4.10;99.90
30250;DHT22;17064;47.974;13.826;2024-03-07T16:41:54;3.90;99.90
30250;DHT22;17064;47.974;13.826;2024-03-07T16:46:54;3.80;99.90
30250;DHT22;17064;47.974;13.826;2024-03-07T16:51:55;3.80;99.90
30250;DHT22;17064;47.974;13.826;2024-03-07T16:56:56;3.70;99.90
30250;DHT22;17064;47.974;13.826;2024-03-07T17:01:56;3.60;99.90
30250;DHT22;17064;47.974;13.826;2024-03-07T17:06:57;3.50;99.90
30250;DHT22;17064;47.974;13.826;2024-03-07T17:11:57;3.40;99.90
30250;DHT22;17064;47.974;13.826;2024-03-07T17:16:58;3.30;99.90
30250;DHT22;17064;47.974;13.826;2024-03-07T17:21:59;3.30;99.90
30250;DHT22;17064;47.974;13.826;2024-03-07T17:27:00;3.30;99.90
30250;DHT22;17064;47.974;13.826;2024-03-07T17:32:02;3.30;99.90
30250;DHT22;17064;47.974;13.826;2024-03-07T17:37:05;3.30;99.90
30250;DHT22;17064;47.974;13.826;2024-03-07T17:42:06;3.30;99.90
30250;DHT22;17064;47.974;13.826;2024-03-07T17:47:11;3.30;99.90
30250;DHT22;17064;47.974;13.826;2024-03-07T17:52:12;3.20;99.90
30250;DHT22;17064;47.974;13.826;2024-03-07T17:57:18;3.20;99.90
30250;DHT22;17064;47.974;13.826;2024-03-07T18:02:19;3.20;99.90
30250;DHT22;17064;47.974;13.826;2024-03-07T18:07:21;3.20;99.90
30250;DHT22;17064;47.974;13.826;2024-03-07T18:12:24;3.10;99.90
30250;DHT22;17064;47.974;13.826;2024-03-07T18:17:26;3.10;99.90
30250;DHT22;17064;47.974;13.826;2024-03-07T18:22:27;3.10;99.90
30250;DHT22;17064;47.974;13.826;2024-03-07T18:27:31;3.10;99.90
30250;DHT22;17064;47.974;13.826;2024-03-07T18:32:34;3.10;99.90
30250;DHT22;17064;47.974;13.826;2024-03-07T18:37:35;3.10;99.90
30250;DHT22;17064;47.974;13.826;2024-03-07T18:42:35;3.10;99.90
30250;DHT22;17064;47.974;13.826;2024-03-07T18:47:39;3.00;99.90
30250;DHT22;17064;47.974;13.826;2024-03-07T18:52:49;3.00;99.90
30250;DHT22;17064;47.974;13.826;2024-03-07T18:57:54;2.90;99.90
30250;DHT22;17064;47.974;13.826;2024-03-07T19:02:55;2.90;99.90
30250;DHT22;17064;47.974;13.826;2024-03-07T19:07:56;2.80;99.90
30250;DHT22;17064;47.974;13.826;2024-03-07T19:12:57;2.70;99.90
30250;DHT22;17064;47.974;13.826;2024-03-07T19:17:58;2.60;99.90
30250;DHT22;17064;47.974;13.826;2024-03-07T19:23:00;2.40;99.90
30250;DHT22;17064;47.974;13.826;2024-03-07T19:28:03;2.30;99.90
30250;DHT22;17064;47.974;13.826;2024-03-07T19:33:07;2.10;99.90
30250;DHT22;17064;47.974;13.826;2024-03-07T19:38:18;1.90;99.90
30250;DHT22;17064;47.974;13.826;2024-03-07T19:43:19;1.80;99.90
30250;DHT22;17064;47.974;13.826;2024-03-07T19:48:20;1.70;99.90
30250;DHT22;17064;47.974;13.826;2024-03-07T19:53:23;1.50;99.90
30250;DHT22;17064;47.974;13.826;2024-03-07T19:58:23;1.50;99.90
30250;DHT22;17064;47.974;13.826;2024-03-07T20:03:26;1.40;99.90
30250;DHT22;17064;47.974;13.826;2024-03-07T20:08:26;1.40;99.90
30250;DHT22;17064;47.974;13.826;2024-03-07T20:13:28;1.30;99.90
30250;DHT22;17064;47.974;13.826;2024-03-07T20:18:28;1.20;99.90
30250;DHT22;17064;47.974;13.826;2024-03-07T20:23:29;1.10;99.90
30250;DHT22;17064;47.974;13.826;2024-03-07T20:28:30;1.00;99.90
30250;DHT22;17064;47.974;13.826;2024-03-07T20:33:31;0.90;99.90
30250;DHT22;17064;47.974;13.826;2024-03-07T20:38:31;0.90;99.90
30250;DHT22;17064;47.974;13.826;2024-03-07T20:43:32;0.80;99.90
30250;DHT22;17064;47.974;13.826;2024-03-07T20:48:34;0.80;99.90
30250;DHT22;17064;47.974;13.826;2024-03-07T20:53:35;0.70;99.90
30250;DHT22;17064;47.974;13.826;2024-03-07T20:58:35;0.70;99.90
30250;DHT22;17064;47.974;13.826;2024-03-07T21:03:36;0.60;99.90
30250;DHT22;17064;47.974;13.826;2024-03-07T21:08:41;0.60;99.90
30250;DHT22;17064;47.974;13.826;2024-03-07T21:13:42;0.50;99.90
30250;DHT22;17064;47.974;13.826;2024-03-07T21:18:43;0.50;99.90
30250;DHT22;17064;47.974;13.826;2024-03-07T21:23:43;0.50;99.90
30250;DHT22;17064;47.974;13.826;2024-03-07T21:28:44;0.40;99.90
30250;DHT22;17064;47.974;13.826;2024-03-07T21:33:44;0.40;99.90
30250;DHT22;17064;47.974;13.826;2024-03-07T21:38:45;0.40;99.90
30250;DHT22;17064;47.974;13.826;2024-03-07T21:43:50;0.40;99.90
30250;DHT22;17064;47.974;13.826;2024-03-07T21:48:52;0.40;99.90
30250;DHT22;17064;47.974;13.826;2024-03-07T21:53:54;0.30;99.90
30250;DHT22;17064;47.974;13.826;2024-03-07T21:58:55;0.20;99.90
30250;DHT22;17064;47.974;13.826;2024-03-07T22:03:58;0.10;99.90
30250;DHT22;17064;47.974;13.826;2024-03-07T22:08:59;0.10;99.90
30250;DHT22;17064;47.974;13.826;2024-03-07T22:14:00;0.10;99.90
30250;DHT22;17064;47.974;13.826;2024-03-07T22:19:00;0.00;99.90
30250;DHT22;17064;47.974;13.826;2024-03-07T22:24:01;0.00;99.90
30250;DHT22;17064;47.974;13.826;2024-03-07T22:29:05;0.00;99.90
30250;DHT22;17064;47.974;13.826;2024-03-07T22:34:10;0.00;99.90
30250;DHT22;17064;47.974;13.826;2024-03-07T22:39:10;0.00;99.90
30250;DHT22;17064;47.974;13.826;2024-03-07T22:44:12;-0.10;99.90
30250;DHT22;17064;47.974;13.826;2024-03-07T22:49:13;-0.20;99.90
30250;DHT22;17064;47.974;13.826;2024-03-07T22:54:15;-0.30;99.90
30250;DHT22;17064;47.974;13.826;2024-03-07T22:59:18;-0.50;99.90
30250;DHT22;17064;47.974;13.826;2024-03-07T23:04:18;-0.70;99.90
30250;DHT22;17064;47.974;13.826;2024-03-07T23:09:19;-0.70;99.90
30250;DHT22;17064;47.974;13.826;2024-03-07T23:14:22;-0.70;99.90
30250;DHT22;17064;47.974;13.826;2024-03-07T23:19:23;-0.50;99.90
30250;DHT22;17064;47.974;13.826;2024-03-07T23:24:24;-0.40;99.90
30250;DHT22;17064;47.974;13.826;2024-03-07T23:29:24;-0.30;99.90
30250;DHT22;17064;47.974;13.826;2024-03-07T23:34:25;-0.30;99.90
30250;DHT22;17064;47.974;13.826;2024-03-07T23:39:25;-0.40;99.90
30250;DHT22;17064;47.974;13.826;2024-03-07T23:44:26;-0.50;99.90
30250;DHT22;17064;47.974;13.826;2024-03-07T23:49:26;-0.50;99.90
30250;DHT22;17064;47.974;13.826;2024-03-07T23:54:28;-0.50;99.90
30250;DHT22;17064;47.974;13.826;2024-03-07T23:59:29;-0.50;99.90
